Parker Lake, Arizona
Current Conditions -  °F | °C
As of 12:55 AM on Thursday 23 Oct 2014 (Local Time) from KFHU Reporting Station
Clear Clear  
Wind Chill: 61°   Ceiling: Unl
Heat Index: 61°   Visibility: 10mi
Dew Point: 43°   Wind: 6mph
Humidity: 52%   Direction: 240°WSW
Pressure: 30.17"   Gusts: NA
Location:  31.4041°N, 110.306°W
Report Text: KFHU 230755Z 24005KT 10SM CLR 16/06 A3017 RMK SLP163
Loading
Personal Weather Stations






























Interactive Weather Map
Tropical Storm Tracking
New forecast layout! Learn more

10-Day Weather Forecast

Advertisements
Track Severe Weather on mobile